sensor_id;sensor_type;location;lat;lon;timestamp;pressure;altitude;pressure_sealevel;temperature;humidity
58662;BME280;44432;49.786;22.760;2022-07-01T00:00:34;99083.63;;;24.09;61.52
58662;BME280;44432;49.786;22.760;2022-07-01T00:03:06;99082.55;;;24.11;61.28
58662;BME280;44432;49.786;22.760;2022-07-01T00:05:37;99079.69;;;24.13;61.01
58662;BME280;44432;49.786;22.760;2022-07-01T00:08:07;99082.98;;;24.16;60.72
58662;BME280;44432;49.786;22.760;2022-07-01T00:10:38;99080.48;;;24.17;60.57
58662;BME280;44432;49.786;22.760;2022-07-01T00:13:09;99080.64;;;24.19;60.41
58662;BME280;44432;49.786;22.760;2022-07-01T00:15:39;99078.47;;;24.19;60.20
58662;BME280;44432;49.786;22.760;2022-07-01T00:18:10;99079.09;;;24.20;60.22
58662;BME280;44432;49.786;22.760;2022-07-01T00:20:40;99074.34;;;24.20;60.12
58662;BME280;44432;49.786;22.760;2022-07-01T00:23:11;99075.16;;;24.18;59.94
58662;BME280;44432;49.786;22.760;2022-07-01T00:25:42;99069.70;;;24.19;59.92
58662;BME280;44432;49.786;22.760;2022-07-01T00:28:13;99070.10;;;24.18;59.78
58662;BME280;44432;49.786;22.760;2022-07-01T00:30:43;99069.33;;;24.16;59.68
58662;BME280;44432;49.786;22.760;2022-07-01T00:33:14;99067.70;;;24.14;59.58
58662;BME280;44432;49.786;22.760;2022-07-01T00:35:45;99067.00;;;24.11;59.63
58662;BME280;44432;49.786;22.760;2022-07-01T00:38:15;99068.84;;;24.06;59.54
58662;BME280;44432;49.786;22.760;2022-07-01T00:40:46;99071.81;;;24.01;59.56
58662;BME280;44432;49.786;22.760;2022-07-01T00:43:21;99074.52;;;23.97;59.63
58662;BME280;44432;49.786;22.760;2022-07-01T00:45:54;99071.06;;;23.93;59.84
58662;BME280;44432;49.786;22.760;2022-07-01T00:48:24;99072.94;;;23.90;59.93
58662;BME280;44432;49.786;22.760;2022-07-01T00:50:55;99069.98;;;23.85;59.96
58662;BME280;44432;49.786;22.760;2022-07-01T00:53:30;99068.41;;;23.80;60.12
58662;BME280;44432;49.786;22.760;2022-07-01T00:56:01;99066.36;;;23.78;60.23
58662;BME280;44432;49.786;22.760;2022-07-01T00:58:32;99068.48;;;23.77;60.32
58662;BME280;44432;49.786;22.760;2022-07-01T01:01:02;99073.80;;;23.76;60.45
58662;BME280;44432;49.786;22.760;2022-07-01T01:03:33;99074.89;;;23.75;60.50
58662;BME280;44432;49.786;22.760;2022-07-01T01:06:04;99072.91;;;23.72;60.59
58662;BME280;44432;49.786;22.760;2022-07-01T01:08:35;99074.27;;;23.69;60.70
58662;BME280;44432;49.786;22.760;2022-07-01T01:11:07;99073.84;;;23.64;60.72
58662;BME280;44432;49.786;22.760;2022-07-01T01:13:38;99080.02;;;23.60;60.78
58662;BME280;44432;49.786;22.760;2022-07-01T01:16:09;99080.84;;;23.54;61.01
58662;BME280;44432;49.786;22.760;2022-07-01T01:18:45;99075.66;;;23.48;61.19
58662;BME280;44432;49.786;22.760;2022-07-01T01:21:16;99074.47;;;23.46;61.30
58662;BME280;44432;49.786;22.760;2022-07-01T01:23:47;99070.95;;;23.43;61.39
58662;BME280;44432;49.786;22.760;2022-07-01T01:26:22;99071.02;;;23.41;61.47
58662;BME280;44432;49.786;22.760;2022-07-01T01:28:53;99072.89;;;23.37;61.51
58662;BME280;44432;49.786;22.760;2022-07-01T01:31:30;99074.42;;;23.32;61.67
58662;BME280;44432;49.786;22.760;2022-07-01T01:34:02;99071.42;;;23.29;61.73
58662;BME280;44432;49.786;22.760;2022-07-01T01:36:33;99071.53;;;23.24;61.95
58662;BME280;44432;49.786;22.760;2022-07-01T01:39:04;99068.48;;;23.20;62.12
58662;BME280;44432;49.786;22.760;2022-07-01T01:41:37;99070.33;;;23.14;62.10
58662;BME280;44432;49.786;22.760;2022-07-01T01:44:08;99070.47;;;23.07;62.31
58662;BME280;44432;49.786;22.760;2022-07-01T01:46:39;99072.98;;;23.02;62.48
58662;BME280;44432;49.786;22.760;2022-07-01T01:49:10;99071.27;;;22.96;62.46
58662;BME280;44432;49.786;22.760;2022-07-01T01:51:41;99068.27;;;22.90;62.81
58662;BME280;44432;49.786;22.760;2022-07-01T01:54:11;99069.27;;;22.87;62.99
58662;BME280;44432;49.786;22.760;2022-07-01T01:56:42;99069.98;;;22.86;63.02
58662;BME280;44432;49.786;22.760;2022-07-01T01:59:12;99070.68;;;22.86;63.18
58662;BME280;44432;49.786;22.760;2022-07-01T02:01:43;99065.08;;;22.86;63.16
58662;BME280;44432;49.786;22.760;2022-07-01T02:04:13;99070.66;;;22.87;63.28
58662;BME280;44432;49.786;22.760;2022-07-01T02:06:44;99067.54;;;22.85;63.33
58662;BME280;44432;49.786;22.760;2022-07-01T02:09:15;99069.92;;;22.80;63.33
58662;BME280;44432;49.786;22.760;2022-07-01T02:11:45;99075.45;;;22.77;63.44
58662;BME280;44432;49.786;22.760;2022-07-01T02:14:16;99077.31;;;22.72;63.36
58662;BME280;44432;49.786;22.760;2022-07-01T02:16:46;99081.31;;;22.68;63.53
58662;BME280;44432;49.786;22.760;2022-07-01T02:19:17;99079.62;;;22.64;63.78
58662;BME280;44432;49.786;22.760;2022-07-01T02:21:47;99079.05;;;22.62;63.97
58662;BME280;44432;49.786;22.760;2022-07-01T02:24:20;99082.90;;;22.61;64.06
58662;BME280;44432;49.786;22.760;2022-07-01T02:26:51;99082.27;;;22.57;64.00
58662;BME280;44432;49.786;22.760;2022-07-01T02:29:21;99080.94;;;22.53;64.32
58662;BME280;44432;49.786;22.760;2022-07-01T02:31:52;99083.80;;;22.48;64.57
58662;BME280;44432;49.786;22.760;2022-07-01T02:34:22;99090.34;;;22.47;64.57
58662;BME280;44432;49.786;22.760;2022-07-01T02:36:53;99090.61;;;22.47;64.52
58662;BME280;44432;49.786;22.760;2022-07-01T02:39:24;99092.08;;;22.46;64.65
58662;BME280;44432;49.786;22.760;2022-07-01T02:41:55;99093.89;;;22.44;64.77
58662;BME280;44432;49.786;22.760;2022-07-01T02:44:43;99095.23;;;22.44;64.83
58662;BME280;44432;49.786;22.760;2022-07-01T02:47:14;99099.38;;;22.44;64.94
58662;BME280;44432;49.786;22.760;2022-07-01T02:49:44;99100.51;;;22.44;64.89
58662;BME280;44432;49.786;22.760;2022-07-01T02:52:15;99097.40;;;22.43;65.08
58662;BME280;44432;49.786;22.760;2022-07-01T02:54:46;99090.96;;;22.42;64.94
58662;BME280;44432;49.786;22.760;2022-07-01T02:57:16;99091.62;;;22.45;65.14
58662;BME280;44432;49.786;22.760;2022-07-01T02:59:47;99094.30;;;22.48;64.93
58662;BME280;44432;49.786;22.760;2022-07-01T03:02:18;99094.48;;;22.51;65.08
58662;BME280;44432;49.786;22.760;2022-07-01T03:04:49;99093.42;;;22.53;64.97
58662;BME280;44432;49.786;22.760;2022-07-01T03:07:20;99096.61;;;22.55;64.92
58662;BME280;44432;49.786;22.760;2022-07-01T03:09:51;99100.05;;;22.55;64.84
58662;BME280;44432;49.786;22.760;2022-07-01T03:12:22;99105.00;;;22.52;64.86
58662;BME280;44432;49.786;22.760;2022-07-01T03:14:58;99106.70;;;22.50;64.99
58662;BME280;44432;49.786;22.760;2022-07-01T03:17:28;99108.84;;;22.51;64.87
58662;BME280;44432;49.786;22.760;2022-07-01T03:20:00;99109.52;;;22.52;65.17
58662;BME280;44432;49.786;22.760;2022-07-01T03:22:32;99114.83;;;22.54;64.98
58662;BME280;44432;49.786;22.760;2022-07-01T03:25:04;99113.66;;;22.52;65.02
58662;BME280;44432;49.786;22.760;2022-07-01T03:27:35;99117.30;;;22.54;65.04
58662;BME280;44432;49.786;22.760;2022-07-01T03:30:07;99112.66;;;22.55;65.07
58662;BME280;44432;49.786;22.760;2022-07-01T03:32:38;99112.80;;;22.59;65.06
58662;BME280;44432;49.786;22.760;2022-07-01T03:35:09;99114.05;;;22.61;64.91
58662;BME280;44432;49.786;22.760;2022-07-01T03:37:57;99111.36;;;22.64;64.98
58662;BME280;44432;49.786;22.760;2022-07-01T03:40:28;99113.29;;;22.68;64.98
58662;BME280;44432;49.786;22.760;2022-07-01T03:42:59;99116.13;;;22.72;65.17
58662;BME280;44432;49.786;22.760;2022-07-01T03:45:30;99117.14;;;22.76;65.02
58662;BME280;44432;49.786;22.760;2022-07-01T03:48:02;99119.57;;;22.83;65.07
58662;BME280;44432;49.786;22.760;2022-07-01T03:50:32;99121.08;;;22.93;64.97
58662;BME280;44432;49.786;22.760;2022-07-01T03:53:03;99121.66;;;23.05;64.76
58662;BME280;44432;49.786;22.760;2022-07-01T03:55:51;99122.53;;;23.19;64.60
58662;BME280;44432;49.786;22.760;2022-07-01T03:58:22;99121.58;;;23.29;64.20
58662;BME280;44432;49.786;22.760;2022-07-01T04:00:52;99122.46;;;23.38;64.01
58662;BME280;44432;49.786;22.760;2022-07-01T04:03:24;99122.52;;;23.46;63.75
58662;BME280;44432;49.786;22.760;2022-07-01T04:05:54;99127.21;;;23.56;63.62
58662;BME280;44432;49.786;22.760;2022-07-01T04:08:25;99131.52;;;23.64;63.39
58662;BME280;44432;49.786;22.760;2022-07-01T04:10:56;99134.39;;;23.68;63.13
58662;BME280;44432;49.786;22.760;2022-07-01T04:13:27;99134.70;;;23.71;62.91
58662;BME280;44432;49.786;22.760;2022-07-01T04:15:59;99135.90;;;23.76;62.71
58662;BME280;44432;49.786;22.760;2022-07-01T04:18:33;99134.27;;;23.79;62.52
58662;BME280;44432;49.786;22.760;2022-07-01T04:21:03;99128.70;;;23.87;62.63
58662;BME280;44432;49.786;22.760;2022-07-01T04:23:51;99126.57;;;23.97;62.44
58662;BME280;44432;49.786;22.760;2022-07-01T04:26:22;99125.91;;;24.04;62.29
58662;BME280;44432;49.786;22.760;2022-07-01T04:28:53;99130.12;;;24.14;62.02
58662;BME280;44432;49.786;22.760;2022-07-01T04:31:24;99132.84;;;24.22;61.75
58662;BME280;44432;49.786;22.760;2022-07-01T04:33:55;99134.44;;;24.29;61.49
58662;BME280;44432;49.786;22.760;2022-07-01T04:36:25;99133.38;;;24.35;61.38
58662;BME280;44432;49.786;22.760;2022-07-01T04:38:56;99136.99;;;24.42;61.13
58662;BME280;44432;49.786;22.760;2022-07-01T04:41:27;99139.10;;;24.49;60.81
58662;BME280;44432;49.786;22.760;2022-07-01T04:44:16;99137.30;;;24.54;60.59
58662;BME280;44432;49.786;22.760;2022-07-01T04:46:46;99142.76;;;24.58;60.41
58662;BME280;44432;49.786;22.760;2022-07-01T04:49:17;99140.95;;;24.61;60.24
58662;BME280;44432;49.786;22.760;2022-07-01T04:51:48;99135.67;;;24.63;60.03
58662;BME280;44432;49.786;22.760;2022-07-01T04:54:18;99129.77;;;24.67;60.02
58662;BME280;44432;49.786;22.760;2022-07-01T04:56:49;99127.71;;;24.76;59.97
58662;BME280;44432;49.786;22.760;2022-07-01T04:59:20;99126.52;;;24.83;59.98
58662;BME280;44432;49.786;22.760;2022-07-01T05:01:51;99125.14;;;24.88;59.57
58662;BME280;44432;49.786;22.760;2022-07-01T05:04:21;99121.38;;;24.91;59.18
58662;BME280;44432;49.786;22.760;2022-07-01T05:06:52;99121.80;;;24.94;59.23
58662;BME280;44432;49.786;22.760;2022-07-01T05:09:23;99117.33;;;24.95;59.23
58662;BME280;44432;49.786;22.760;2022-07-01T05:11:54;99116.73;;;24.97;59.15
58662;BME280;44432;49.786;22.760;2022-07-01T05:14:24;99115.70;;;25.00;59.15
58662;BME280;44432;49.786;22.760;2022-07-01T05:16:55;99112.39;;;25.04;59.13
58662;BME280;44432;49.786;22.760;2022-07-01T05:19:25;99110.30;;;25.07;58.95
58662;BME280;44432;49.786;22.760;2022-07-01T05:22:13;99115.46;;;25.13;58.71
58662;BME280;44432;49.786;22.760;2022-07-01T05:24:44;99110.64;;;25.13;58.91
58662;BME280;44432;49.786;22.760;2022-07-01T05:27:14;99114.49;;;25.16;58.80
58662;BME280;44432;49.786;22.760;2022-07-01T05:29:45;99111.43;;;25.22;58.80
58662;BME280;44432;49.786;22.760;2022-07-01T05:32:15;99107.03;;;25.28;58.66
58662;BME280;44432;49.786;22.760;2022-07-01T05:34:46;99112.66;;;25.35;58.43
58662;BME280;44432;49.786;22.760;2022-07-01T05:37:17;99118.43;;;25.41;58.27
58662;BME280;44432;49.786;22.760;2022-07-01T05:39:50;99128.71;;;25.49;57.94
58662;BME280;44432;49.786;22.760;2022-07-01T05:42:20;99127.33;;;25.55;57.94
58662;BME280;44432;49.786;22.760;2022-07-01T05:44:51;99121.90;;;25.60;57.83
58662;BME280;44432;49.786;22.760;2022-07-01T05:47:21;99123.70;;;25.63;57.51
58662;BME280;44432;49.786;22.760;2022-07-01T05:49:52;99130.57;;;25.68;57.58
58662;BME280;44432;49.786;22.760;2022-07-01T05:52:22;99134.16;;;25.70;57.41
58662;BME280;44432;49.786;22.760;2022-07-01T05:54:53;99130.08;;;25.74;57.26
58662;BME280;44432;49.786;22.760;2022-07-01T05:57:24;99130.52;;;25.77;57.08
58662;BME280;44432;49.786;22.760;2022-07-01T05:59:54;99133.08;;;25.80;56.81
58662;BME280;44432;49.786;22.760;2022-07-01T06:02:25;99132.16;;;25.84;57.13
58662;BME280;44432;49.786;22.760;2022-07-01T06:04:56;99134.08;;;25.88;56.91
58662;BME280;44432;49.786;22.760;2022-07-01T06:07:28;99132.64;;;25.93;56.82
58662;BME280;44432;49.786;22.760;2022-07-01T06:09:59;99133.54;;;25.95;56.89
58662;BME280;44432;49.786;22.760;2022-07-01T06:12:29;99135.69;;;26.00;56.78
58662;BME280;44432;49.786;22.760;2022-07-01T06:15:00;99131.05;;;26.08;56.82
58662;BME280;44432;49.786;22.760;2022-07-01T06:17:30;99129.66;;;26.16;57.02
58662;BME280;44432;49.786;22.760;2022-07-01T06:20:01;99131.19;;;26.24;56.60
58662;BME280;44432;49.786;22.760;2022-07-01T06:22:32;99127.22;;;26.32;56.57
58662;BME280;44432;49.786;22.760;2022-07-01T06:25:04;99128.72;;;26.40;56.36
58662;BME280;44432;49.786;22.760;2022-07-01T06:27:39;99128.77;;;26.47;56.40
58662;BME280;44432;49.786;22.760;2022-07-01T06:30:11;99131.98;;;26.54;56.47
58662;BME280;44432;49.786;22.760;2022-07-01T06:32:42;99130.75;;;26.64;56.25
58662;BME280;44432;49.786;22.760;2022-07-01T06:35:13;99130.73;;;26.72;55.78
58662;BME280;44432;49.786;22.760;2022-07-01T06:37:44;99131.79;;;26.83;55.90
58662;BME280;44432;49.786;22.760;2022-07-01T06:40:14;99134.25;;;26.93;56.01
58662;BME280;44432;49.786;22.760;2022-07-01T06:42:45;99137.35;;;27.04;55.74
58662;BME280;44432;49.786;22.760;2022-07-01T06:45:16;99139.42;;;27.16;55.59
58662;BME280;44432;49.786;22.760;2022-07-01T06:47:47;99137.06;;;27.24;55.45
58662;BME280;44432;49.786;22.760;2022-07-01T06:50:17;99137.60;;;27.32;55.39
58662;BME280;44432;49.786;22.760;2022-07-01T06:52:48;99134.92;;;27.43;55.32
58662;BME280;44432;49.786;22.760;2022-07-01T06:55:18;99133.05;;;27.54;54.92
58662;BME280;44432;49.786;22.760;2022-07-01T06:57:49;99133.75;;;27.65;54.86
58662;BME280;44432;49.786;22.760;2022-07-01T07:00:19;99127.14;;;27.75;54.68
58662;BME280;44432;49.786;22.760;2022-07-01T07:02:50;99128.50;;;27.86;54.53
58662;BME280;44432;49.786;22.760;2022-07-01T07:05:21;99128.73;;;27.98;54.35
58662;BME280;44432;49.786;22.760;2022-07-01T07:07:51;99125.54;;;28.06;53.81
58662;BME280;44432;49.786;22.760;2022-07-01T07:10:22;99118.70;;;28.15;53.47
58662;BME280;44432;49.786;22.760;2022-07-01T07:12:53;99125.27;;;28.26;53.13
58662;BME280;44432;49.786;22.760;2022-07-01T07:15:23;99123.83;;;28.36;52.83
58662;BME280;44432;49.786;22.760;2022-07-01T07:17:54;99121.83;;;28.47;52.46
58662;BME280;44432;49.786;22.760;2022-07-01T07:20:27;99118.55;;;28.58;52.45
58662;BME280;44432;49.786;22.760;2022-07-01T07:22:58;99114.44;;;28.69;52.17
58662;BME280;44432;49.786;22.760;2022-07-01T07:25:28;99112.74;;;28.81;51.65
58662;BME280;44432;49.786;22.760;2022-07-01T07:27:59;99114.46;;;28.92;51.51
58662;BME280;44432;49.786;22.760;2022-07-01T07:30:29;99107.41;;;29.02;51.04
58662;BME280;44432;49.786;22.760;2022-07-01T07:33:00;99105.52;;;29.11;50.46
58662;BME280;44432;49.786;22.760;2022-07-01T07:35:31;99102.15;;;29.18;49.88
58662;BME280;44432;49.786;22.760;2022-07-01T07:38:01;99101.92;;;29.25;49.77
58662;BME280;44432;49.786;22.760;2022-07-01T07:40:32;99099.45;;;29.31;49.72
58662;BME280;44432;49.786;22.760;2022-07-01T07:43:03;99098.62;;;29.39;49.58
58662;BME280;44432;49.786;22.760;2022-07-01T07:45:36;99098.09;;;29.48;49.48
58662;BME280;44432;49.786;22.760;2022-07-01T07:48:07;99096.60;;;29.56;49.23
58662;BME280;44432;49.786;22.760;2022-07-01T07:50:39;99098.20;;;29.60;48.77
58662;BME280;44432;49.786;22.760;2022-07-01T07:53:09;99097.89;;;29.65;48.65
58662;BME280;44432;49.786;22.760;2022-07-01T07:55:41;99102.31;;;29.73;48.42
58662;BME280;44432;49.786;22.760;2022-07-01T07:58:11;99106.77;;;29.81;48.04
58662;BME280;44432;49.786;22.760;2022-07-01T08:00:42;99106.77;;;29.86;47.51
58662;BME280;44432;49.786;22.760;2022-07-01T08:03:13;99108.86;;;29.94;47.30
58662;BME280;44432;49.786;22.760;2022-07-01T08:05:43;99110.50;;;30.02;47.06
58662;BME280;44432;49.786;22.760;2022-07-01T08:08:14;99109.44;;;30.08;46.80
58662;BME280;44432;49.786;22.760;2022-07-01T08:10:44;99115.02;;;30.19;46.78
58662;BME280;44432;49.786;22.760;2022-07-01T08:13:15;99110.04;;;30.31;46.78
58662;BME280;44432;49.786;22.760;2022-07-01T08:15:45;99108.16;;;30.41;46.65
58662;BME280;44432;49.786;22.760;2022-07-01T08:18:16;99112.89;;;30.55;46.29
58662;BME280;44432;49.786;22.760;2022-07-01T08:20:47;99111.45;;;30.67;46.23
58662;BME280;44432;49.786;22.760;2022-07-01T08:23:22;99108.11;;;30.77;45.96
58662;BME280;44432;49.786;22.760;2022-07-01T08:25:53;99110.30;;;30.89;46.09
58662;BME280;44432;49.786;22.760;2022-07-01T08:28:23;99112.19;;;30.97;45.73
58662;BME280;44432;49.786;22.760;2022-07-01T08:30:54;99108.25;;;31.04;45.39
58662;BME280;44432;49.786;22.760;2022-07-01T08:33:24;99102.48;;;31.13;45.50
58662;BME280;44432;49.786;22.760;2022-07-01T08:35:55;99103.64;;;31.22;45.13
58662;BME280;44432;49.786;22.760;2022-07-01T08:38:26;99102.02;;;31.31;44.67
58662;BME280;44432;49.786;22.760;2022-07-01T08:40:56;99100.62;;;31.34;44.22
58662;BME280;44432;49.786;22.760;2022-07-01T08:43:27;99103.12;;;31.41;44.24
58662;BME280;44432;49.786;22.760;2022-07-01T08:45:59;99103.09;;;31.50;43.86
58662;BME280;44432;49.786;22.760;2022-07-01T08:48:31;99099.89;;;31.57;43.75
58662;BME280;44432;49.786;22.760;2022-07-01T08:51:01;99096.34;;;31.62;43.18
58662;BME280;44432;49.786;22.760;2022-07-01T08:53:33;99090.75;;;31.69;43.37
58662;BME280;44432;49.786;22.760;2022-07-01T08:56:04;99095.76;;;31.80;43.39
58662;BME280;44432;49.786;22.760;2022-07-01T08:58:53;99099.67;;;31.93;43.09
58662;BME280;44432;49.786;22.760;2022-07-01T09:01:25;99099.05;;;32.01;42.27
58662;BME280;44432;49.786;22.760;2022-07-01T09:04:05;99096.73;;;32.01;41.50
58662;BME280;44432;49.786;22.760;2022-07-01T09:06:43;99094.06;;;32.01;41.64
58662;BME280;44432;49.786;22.760;2022-07-01T09:09:15;99093.08;;;32.06;41.36
58662;BME280;44432;49.786;22.760;2022-07-01T09:11:48;99093.22;;;32.13;41.24
58662;BME280;44432;49.786;22.760;2022-07-01T09:14:23;99092.94;;;32.22;41.12
58662;BME280;44432;49.786;22.760;2022-07-01T09:16:55;99090.48;;;32.29;40.60
58662;BME280;44432;49.786;22.760;2022-07-01T09:19:28;99089.31;;;32.37;40.49
58662;BME280;44432;49.786;22.760;2022-07-01T09:22:00;99090.11;;;32.42;39.84
58662;BME280;44432;49.786;22.760;2022-07-01T09:24:31;99090.55;;;32.45;39.78
58662;BME280;44432;49.786;22.760;2022-07-01T09:27:03;99089.89;;;32.47;39.50
58662;BME280;44432;49.786;22.760;2022-07-01T09:29:40;99085.33;;;32.50;39.38
58662;BME280;44432;49.786;22.760;2022-07-01T09:32:12;99085.48;;;32.53;38.59
58662;BME280;44432;49.786;22.760;2022-07-01T09:34:44;99086.09;;;32.58;38.52
58662;BME280;44432;49.786;22.760;2022-07-01T09:37:16;99082.70;;;32.65;38.44
58662;BME280;44432;49.786;22.760;2022-07-01T09:39:49;99081.36;;;32.76;38.41
58662;BME280;44432;49.786;22.760;2022-07-01T09:42:21;99082.85;;;32.85;38.14
58662;BME280;44432;49.786;22.760;2022-07-01T09:44:57;99082.85;;;32.90;37.67
58662;BME280;44432;49.786;22.760;2022-07-01T09:47:29;99080.34;;;32.93;37.73
58662;BME280;44432;49.786;22.760;2022-07-01T09:50:00;99078.23;;;32.99;37.60
58662;BME280;44432;49.786;22.760;2022-07-01T09:52:32;99070.80;;;33.08;37.38
58662;BME280;44432;49.786;22.760;2022-07-01T09:55:03;99067.70;;;33.20;37.25
58662;BME280;44432;49.786;22.760;2022-07-01T09:57:34;99064.65;;;33.31;37.04
58662;BME280;44432;49.786;22.760;2022-07-01T10:00:07;99067.02;;;33.38;36.79
58662;BME280;44432;49.786;22.760;2022-07-01T10:02:39;99061.48;;;33.44;36.48
58662;BME280;44432;49.786;22.760;2022-07-01T10:05:14;99060.61;;;33.49;36.37
58662;BME280;44432;49.786;22.760;2022-07-01T10:07:55;99057.33;;;33.55;36.04
58662;BME280;44432;49.786;22.760;2022-07-01T10:10:47;99056.52;;;33.60;35.99
58662;BME280;44432;49.786;22.760;2022-07-01T10:13:21;99060.18;;;33.64;35.77
58662;BME280;44432;49.786;22.760;2022-07-01T10:15:55;99057.40;;;33.67;35.14
58662;BME280;44432;49.786;22.760;2022-07-01T10:18:28;99055.27;;;33.66;34.72
58662;BME280;44432;49.786;22.760;2022-07-01T10:20:59;99057.21;;;33.65;34.66
58662;BME280;44432;49.786;22.760;2022-07-01T10:23:41;99051.00;;;33.68;35.21
58662;BME280;44432;49.786;22.760;2022-07-01T10:26:11;99045.73;;;33.72;34.77
58662;BME280;44432;49.786;22.760;2022-07-01T10:28:43;99045.23;;;33.75;34.61
58662;BME280;44432;49.786;22.760;2022-07-01T10:31:17;99044.09;;;33.78;34.38
58662;BME280;44432;49.786;22.760;2022-07-01T10:33:49;99040.64;;;33.82;34.02
58662;BME280;44432;49.786;22.760;2022-07-01T10:36:28;99039.00;;;33.82;34.36
58662;BME280;44432;49.786;22.760;2022-07-01T10:39:13;99038.25;;;33.84;34.29
58662;BME280;44432;49.786;22.760;2022-07-01T10:42:00;99034.58;;;33.85;34.08
58662;BME280;44432;49.786;22.760;2022-07-01T10:44:32;99030.92;;;33.88;34.15
58662;BME280;44432;49.786;22.760;2022-07-01T10:47:07;99035.38;;;33.93;33.59
58662;BME280;44432;49.786;22.760;2022-07-01T10:50:02;99035.96;;;33.97;33.56
58662;BME280;44432;49.786;22.760;2022-07-01T10:52:34;99033.02;;;33.99;33.00
58662;BME280;44432;49.786;22.760;2022-07-01T10:55:07;99029.13;;;34.01;32.91
58662;BME280;44432;49.786;22.760;2022-07-01T10:57:42;99029.02;;;34.05;33.42
58662;BME280;44432;49.786;22.760;2022-07-01T11:00:28;99026.34;;;34.12;33.45
58662;BME280;44432;49.786;22.760;2022-07-01T11:03:09;99022.72;;;34.18;32.85
58662;BME280;44432;49.786;22.760;2022-07-01T11:05:41;99026.92;;;34.22;32.61
58662;BME280;44432;49.786;22.760;2022-07-01T11:08:12;99028.92;;;34.26;32.48
58662;BME280;44432;49.786;22.760;2022-07-01T11:10:43;99029.92;;;34.31;32.58
58662;BME280;44432;49.786;22.760;2022-07-01T11:13:17;99027.73;;;34.33;32.26
58662;BME280;44432;49.786;22.760;2022-07-01T11:15:49;99019.45;;;34.34;32.15
58662;BME280;44432;49.786;22.760;2022-07-01T11:18:22;99018.06;;;34.38;32.41
58662;BME280;44432;49.786;22.760;2022-07-01T11:20:53;99012.61;;;34.40;32.14
58662;BME280;44432;49.786;22.760;2022-07-01T11:23:32;99013.83;;;34.46;32.30
58662;BME280;44432;49.786;22.760;2022-07-01T11:26:02;99014.09;;;34.49;32.14
58662;BME280;44432;49.786;22.760;2022-07-01T11:28:40;99011.38;;;34.52;32.09
58662;BME280;44432;49.786;22.760;2022-07-01T11:31:11;99008.69;;;34.58;32.25
58662;BME280;44432;49.786;22.760;2022-07-01T11:33:41;99005.46;;;34.66;32.06
58662;BME280;44432;49.786;22.760;2022-07-01T11:36:18;98996.73;;;34.71;32.26
58662;BME280;44432;49.786;22.760;2022-07-01T11:39:07;98992.84;;;34.75;32.13
58662;BME280;44432;49.786;22.760;2022-07-01T11:41:58;98996.73;;;34.73;32.04
58662;BME280;44432;49.786;22.760;2022-07-01T11:44:37;98990.23;;;34.70;32.24
58662;BME280;44432;49.786;22.760;2022-07-01T11:47:10;98992.52;;;34.75;32.27
58662;BME280;44432;49.786;22.760;2022-07-01T11:49:48;98988.40;;;34.79;32.03
58662;BME280;44432;49.786;22.760;2022-07-01T11:52:20;98984.15;;;34.83;31.87
58662;BME280;44432;49.786;22.760;2022-07-01T11:54:53;98979.45;;;34.84;31.69
58662;BME280;44432;49.786;22.760;2022-07-01T11:57:26;98976.56;;;34.85;31.68
58662;BME280;44432;49.786;22.760;2022-07-01T12:00:07;98976.33;;;34.85;31.56
58662;BME280;44432;49.786;22.760;2022-07-01T12:02:38;98975.23;;;34.85;31.90
58662;BME280;44432;49.786;22.760;2022-07-01T12:05:09;98970.52;;;34.84;31.57
58662;BME280;44432;49.786;22.760;2022-07-01T12:07:40;98970.48;;;34.88;31.77
58662;BME280;44432;49.786;22.760;2022-07-01T12:10:11;98967.35;;;34.90;31.56
58662;BME280;44432;49.786;22.760;2022-07-01T12:12:46;98967.45;;;34.93;31.27
58662;BME280;44432;49.786;22.760;2022-07-01T12:15:16;98962.50;;;34.92;31.30
58662;BME280;44432;49.786;22.760;2022-07-01T12:17:47;98974.25;;;34.92;31.25
58662;BME280;44432;49.786;22.760;2022-07-01T12:20:32;98966.04;;;34.93;31.13
58662;BME280;44432;49.786;22.760;2022-07-01T12:23:13;98973.67;;;35.00;31.12
58662;BME280;44432;49.786;22.760;2022-07-01T12:25:49;98972.39;;;35.08;31.03
58662;BME280;44432;49.786;22.760;2022-07-01T12:28:38;98971.19;;;35.17;30.82
58662;BME280;44432;49.786;22.760;2022-07-01T12:31:10;98963.62;;;35.25;30.60
58662;BME280;44432;49.786;22.760;2022-07-01T12:33:49;98959.22;;;35.35;30.42
58662;BME280;44432;49.786;22.760;2022-07-01T12:36:20;98956.27;;;35.45;30.27
58662;BME280;44432;49.786;22.760;2022-07-01T12:39:04;98955.59;;;35.54;30.39
58662;BME280;44432;49.786;22.760;2022-07-01T12:41:36;98961.19;;;35.62;30.40
58662;BME280;44432;49.786;22.760;2022-07-01T12:44:21;98960.42;;;35.69;30.35
58662;BME280;44432;49.786;22.760;2022-07-01T12:46:52;98960.52;;;35.75;29.95
58662;BME280;44432;49.786;22.760;2022-07-01T12:49:24;98961.50;;;35.81;30.05
58662;BME280;44432;49.786;22.760;2022-07-01T12:51:55;98960.19;;;35.88;29.80
58662;BME280;44432;49.786;22.760;2022-07-01T12:54:34;98965.07;;;35.95;29.86
58662;BME280;44432;49.786;22.760;2022-07-01T12:57:06;98963.60;;;36.08;30.05
58662;BME280;44432;49.786;22.760;2022-07-01T12:59:36;98960.63;;;36.20;29.56
58662;BME280;44432;49.786;22.760;2022-07-01T13:02:07;98954.30;;;36.29;29.27
58662;BME280;44432;49.786;22.760;2022-07-01T13:04:38;98953.36;;;36.35;29.23
58662;BME280;44432;49.786;22.760;2022-07-01T13:07:09;98953.84;;;36.37;29.01
58662;BME280;44432;49.786;22.760;2022-07-01T13:09:39;98959.10;;;36.32;29.00
58662;BME280;44432;49.786;22.760;2022-07-01T13:12:10;98961.03;;;36.26;29.10
58662;BME280;44432;49.786;22.760;2022-07-01T13:14:41;98956.70;;;36.24;29.06
58662;BME280;44432;49.786;22.760;2022-07-01T13:17:13;98961.80;;;36.23;29.01